createdAt,value
2023-04-20T00:00:09.734Z,96.49
2023-04-20T00:02:37.620Z,96.26
2023-04-20T00:05:07.637Z,94.94
2023-04-20T00:07:34.460Z,93.54
2023-04-20T00:10:01.861Z,91.54
2023-04-20T00:12:28.715Z,95.36
2023-04-20T00:14:55.978Z,97.36
2023-04-20T00:17:22.777Z,97.10
2023-04-20T00:19:50.815Z,96.36
2023-04-20T00:22:17.717Z,96.52
2023-04-20T00:24:44.537Z,97.65
2023-04-20T00:27:12.181Z,100.00
2023-04-20T00:29:38.994Z,99.82
2023-04-20T00:32:06.713Z,100.00
2023-04-20T00:34:33.441Z,100.00
2023-04-20T00:37:00.267Z,100.00
2023-04-20T00:39:27.212Z,100.00
2023-04-20T00:41:53.934Z,100.00
2023-04-20T00:44:20.911Z,100.00
2023-04-20T00:46:47.770Z,99.80
2023-04-20T00:49:14.530Z,99.59
2023-04-20T00:51:41.449Z,100.00
2023-04-20T00:54:08.575Z,100.00
2023-04-20T00:56:35.691Z,100.00
2023-04-20T00:59:02.969Z,100.00
2023-04-20T01:01:29.974Z,100.00
2023-04-20T01:03:57.072Z,100.00
2023-04-20T01:06:23.908Z,100.00
2023-04-20T01:08:52.135Z,100.00
2023-04-20T01:11:19.222Z,100.00
2023-04-20T01:13:50.354Z,100.00
2023-04-20T01:16:17.571Z,100.00
2023-04-20T01:18:46.932Z,100.00
2023-04-20T01:21:15.521Z,100.00
2023-04-20T01:23:42.428Z,100.00
2023-04-20T01:26:10.692Z,100.00
2023-04-20T01:28:37.582Z,100.00
2023-04-20T01:31:05.090Z,100.00
2023-04-20T01:33:31.907Z,100.00
2023-04-20T01:35:58.805Z,100.00
2023-04-20T01:38:27.015Z,100.00
2023-04-20T01:40:55.097Z,100.00
2023-04-20T01:43:22.723Z,100.00
2023-04-20T01:45:49.375Z,100.00
2023-04-20T01:48:16.369Z,100.00
2023-04-20T01:50:43.134Z,100.00
2023-04-20T01:53:10.006Z,100.00
2023-04-20T01:55:37.131Z,100.00
2023-04-20T01:58:04.385Z,100.00
2023-04-20T02:00:31.286Z,100.00
2023-04-20T02:02:58.653Z,100.00
2023-04-20T02:05:28.560Z,100.00
2023-04-20T02:07:55.347Z,100.00
2023-04-20T02:10:22.039Z,100.00
2023-04-20T02:12:49.716Z,100.00
2023-04-20T02:15:16.895Z,100.00
2023-04-20T02:17:44.075Z,100.00
2023-04-20T02:20:11.917Z,100.00
2023-04-20T02:22:38.769Z,100.00
2023-04-20T02:25:06.382Z,100.00
2023-04-20T02:27:33.435Z,100.00
2023-04-20T02:30:00.798Z,100.00
2023-04-20T02:32:27.816Z,100.00
2023-04-20T02:34:54.519Z,100.00
2023-04-20T02:37:21.506Z,100.00
2023-04-20T02:39:48.457Z,100.00
2023-04-20T02:42:15.201Z,100.00
2023-04-20T02:44:41.880Z,100.00
2023-04-20T02:47:08.622Z,100.00
2023-04-20T02:49:36.096Z,100.00
2023-04-20T02:52:02.919Z,100.00
2023-04-20T02:54:29.769Z,100.00
2023-04-20T02:56:58.086Z,100.00
2023-04-20T02:59:25.175Z,100.00
2023-04-20T03:01:52.076Z,100.00
2023-04-20T03:04:19.659Z,100.00
2023-04-20T03:06:46.489Z,100.00
2023-04-20T03:09:13.471Z,100.00
2023-04-20T03:11:40.180Z,100.00
2023-04-20T03:14:07.132Z,100.00
2023-04-20T03:16:34.380Z,100.00
2023-04-20T03:19:01.183Z,100.00
2023-04-20T03:21:27.883Z,100.00
2023-04-20T03:23:54.762Z,100.00
2023-04-20T03:26:21.477Z,100.00
2023-04-20T03:28:50.416Z,100.00
2023-04-20T03:31:17.454Z,100.00
2023-04-20T03:33:44.169Z,100.00
2023-04-20T03:36:13.835Z,100.00
2023-04-20T03:38:40.686Z,100.00
2023-04-20T03:41:08.417Z,100.00
2023-04-20T03:43:35.398Z,100.00
2023-04-20T03:46:02.416Z,100.00
2023-04-20T03:48:29.223Z,100.00
2023-04-20T03:50:55.949Z,100.00
2023-04-20T03:53:23.482Z,100.00
2023-04-20T03:55:50.154Z,100.00
2023-04-20T03:58:17.968Z,100.00
2023-04-20T04:00:44.623Z,100.00
2023-04-20T04:03:11.462Z,100.00
2023-04-20T04:05:38.772Z,100.00
2023-04-20T04:08:06.070Z,100.00
2023-04-20T04:10:32.838Z,100.00
2023-04-20T04:13:00.208Z,100.00
2023-04-20T04:15:26.914Z,100.00
2023-04-20T04:17:54.408Z,100.00
2023-04-20T04:20:21.393Z,100.00
2023-04-20T04:22:48.087Z,100.00
2023-04-20T04:25:15.474Z,100.00
2023-04-20T04:27:42.406Z,100.00
2023-04-20T04:30:11.715Z,100.00
2023-04-20T04:32:38.450Z,100.00
2023-04-20T04:35:06.122Z,100.00
2023-04-20T04:37:32.861Z,100.00
2023-04-20T04:39:59.598Z,100.00
2023-04-20T04:42:27.875Z,100.00
2023-04-20T04:44:56.365Z,100.00
2023-04-20T04:47:23.966Z,100.00
2023-04-20T04:49:50.835Z,100.00
2023-04-20T04:52:18.214Z,100.00
2023-04-20T04:54:45.257Z,100.00
2023-04-20T04:57:12.551Z,100.00
2023-04-20T04:59:39.399Z,100.00
2023-04-20T05:02:06.409Z,100.00
2023-04-20T05:04:33.260Z,100.00
2023-04-20T05:07:00.212Z,100.00
2023-04-20T05:09:33.463Z,100.00
2023-04-20T05:12:01.208Z,100.00
2023-04-20T05:14:27.872Z,100.00
2023-04-20T05:16:54.866Z,100.00
2023-04-20T05:19:21.586Z,100.00
2023-04-20T05:21:49.531Z,100.00
2023-04-20T05:24:18.183Z,100.00
2023-04-20T05:26:45.430Z,100.00
2023-04-20T05:29:12.505Z,100.00
2023-04-20T05:31:39.213Z,100.00
2023-04-20T05:34:06.214Z,100.00
2023-04-20T05:36:33.993Z,100.00
2023-04-20T05:39:01.136Z,100.00
2023-04-20T05:41:28.798Z,100.00
2023-04-20T05:43:55.809Z,100.00
2023-04-20T05:46:23.455Z,100.00
2023-04-20T05:48:50.239Z,100.00
2023-04-20T05:51:17.026Z,100.00
2023-04-20T05:53:43.834Z,100.00
2023-04-20T05:56:11.130Z,100.00
2023-04-20T05:58:37.973Z,100.00
2023-04-20T06:01:05.218Z,100.00
2023-04-20T06:03:32.568Z,100.00
2023-04-20T06:05:59.793Z,100.00
2023-04-20T06:08:26.954Z,100.00
2023-04-20T06:10:56.204Z,100.00
2023-04-20T06:13:23.267Z,100.00
2023-04-20T06:15:50.479Z,100.00
2023-04-20T06:18:17.882Z,100.00
2023-04-20T06:20:44.840Z,100.00
2023-04-20T06:23:12.122Z,100.00
2023-04-20T06:25:39.252Z,100.00
2023-04-20T06:28:07.065Z,100.00
2023-04-20T06:30:34.924Z,100.00
2023-04-20T06:33:02.489Z,100.00
2023-04-20T06:35:29.888Z,100.00
2023-04-20T06:37:57.995Z,100.00
2023-04-20T06:40:28.994Z,100.00
2023-04-20T06:42:55.705Z,100.00
2023-04-20T06:45:22.733Z,100.00
2023-04-20T06:47:49.541Z,100.00
2023-04-20T06:50:16.814Z,100.00
2023-04-20T06:52:43.628Z,100.00
2023-04-20T06:55:10.932Z,100.00
2023-04-20T06:57:40.206Z,100.00
2023-04-20T07:00:08.945Z,100.00
2023-04-20T07:02:51.383Z,100.00
2023-04-20T07:05:18.807Z,100.00
2023-04-20T07:07:45.718Z,100.00
2023-04-20T07:10:14.152Z,100.00
2023-04-20T07:12:43.750Z,100.00
2023-04-20T07:15:11.752Z,100.00
2023-04-20T07:17:39.258Z,100.00
2023-04-20T07:20:08.899Z,100.00
2023-04-20T07:22:36.686Z,100.00
2023-04-20T07:25:08.517Z,100.00
2023-04-20T07:27:37.800Z,100.00
2023-04-20T07:30:06.960Z,100.00
2023-04-20T07:32:36.571Z,100.00
2023-04-20T07:35:04.182Z,100.00
2023-04-20T07:37:32.883Z,100.00
2023-04-20T07:39:59.982Z,100.00
2023-04-20T07:42:26.998Z,100.00
2023-04-20T07:44:54.765Z,100.00
2023-04-20T07:47:21.594Z,100.00
2023-04-20T07:49:48.890Z,100.00
2023-04-20T07:52:17.306Z,100.00
2023-04-20T07:54:45.468Z,100.00
2023-04-20T07:57:12.648Z,100.00
2023-04-20T07:59:40.884Z,100.00
2023-04-20T08:02:08.876Z,100.00
2023-04-20T08:04:39.243Z,100.00
2023-04-20T08:07:06.296Z,100.00
2023-04-20T08:09:33.161Z,100.00
2023-04-20T08:12:00.791Z,100.00
2023-04-20T08:14:27.751Z,100.00
2023-04-20T08:16:54.533Z,100.00
2023-04-20T08:19:21.408Z,100.00
2023-04-20T08:21:48.251Z,100.00
2023-04-20T08:24:15.006Z,100.00
2023-04-20T08:26:44.233Z,100.00
2023-04-20T08:29:11.154Z,100.00
2023-04-20T08:31:38.259Z,100.00
2023-04-20T08:34:05.136Z,100.00
2023-04-20T08:36:32.378Z,100.00
2023-04-20T08:39:18.960Z,100.00
2023-04-20T08:41:45.756Z,99.85
2023-04-20T08:44:12.505Z,99.70
2023-04-20T08:46:41.739Z,99.34
2023-04-20T08:49:12.301Z,98.67
2023-04-20T08:51:42.721Z,97.51
2023-04-20T08:54:11.020Z,98.45
2023-04-20T08:56:45.411Z,96.29
2023-04-20T08:59:14.735Z,96.63
2023-04-20T09:01:42.777Z,95.64
2023-04-20T09:04:29.390Z,96.54
2023-04-20T09:06:56.848Z,96.27
2023-04-20T09:09:25.740Z,94.54
2023-04-20T09:12:07.533Z,95.03
2023-04-20T09:14:48.765Z,94.06
2023-04-20T09:17:18.222Z,90.59
2023-04-20T09:19:46.252Z,91.70
2023-04-20T09:22:13.151Z,90.50
2023-04-20T09:24:41.417Z,91.94
2023-04-20T09:27:20.104Z,91.11
2023-04-20T09:30:01.540Z,91.98
2023-04-20T09:32:33.208Z,91.33
2023-04-20T09:35:00.212Z,89.61
2023-04-20T09:37:27.049Z,91.82
2023-04-20T09:39:56.617Z,92.67
2023-04-20T09:42:25.220Z,93.85
2023-04-20T09:44:53.051Z,93.54
2023-04-20T09:47:19.908Z,94.81
2023-04-20T09:49:49.735Z,93.85
2023-04-20T09:52:18.707Z,93.91
2023-04-20T09:54:45.749Z,94.36
2023-04-20T09:57:14.341Z,94.32
2023-04-20T09:59:47.027Z,94.64
2023-04-20T10:02:14.257Z,93.99
2023-04-20T10:04:57.745Z,93.68
2023-04-20T10:07:26.709Z,92.58
2023-04-20T10:10:08.007Z,93.57
2023-04-20T10:12:37.405Z,92.96
2023-04-20T10:15:04.711Z,93.79
2023-04-20T10:17:32.714Z,91.80
2023-04-20T10:19:59.864Z,90.38
2023-04-20T10:22:33.042Z,90.87
2023-04-20T10:25:02.210Z,92.79
2023-04-20T10:27:29.208Z,93.46
2023-04-20T10:29:55.927Z,90.63
2023-04-20T10:32:27.767Z,87.87
2023-04-20T10:35:21.420Z,87.71
2023-04-20T10:37:52.327Z,88.57
2023-04-20T10:40:27.407Z,87.29
2023-04-20T10:42:54.253Z,83.56
2023-04-20T10:45:22.383Z,83.66
2023-04-20T10:47:49.329Z,87.51
2023-04-20T10:50:19.175Z,86.94
2023-04-20T10:52:46.208Z,86.91
2023-04-20T10:55:20.882Z,83.49
2023-04-20T10:57:48.553Z,82.28
2023-04-20T11:00:20.707Z,83.87
2023-04-20T11:02:52.361Z,84.12
2023-04-20T11:05:20.497Z,80.21
2023-04-20T11:07:59.036Z,80.15
2023-04-20T11:10:41.389Z,81.04
2023-04-20T11:13:19.687Z,82.66
2023-04-20T11:15:46.664Z,81.86
2023-04-20T11:18:13.558Z,79.74
2023-04-20T11:20:59.146Z,82.01
2023-04-20T11:23:27.881Z,82.07
2023-04-20T11:25:57.118Z,80.90
2023-04-20T11:28:24.493Z,82.64
2023-04-20T11:30:51.547Z,81.06
2023-04-20T11:33:29.296Z,81.26
2023-04-20T11:35:57.718Z,79.39
2023-04-20T11:38:33.563Z,80.04
2023-04-20T11:41:04.952Z,81.05
2023-04-20T11:43:38.425Z,81.38
2023-04-20T11:46:17.175Z,81.14
2023-04-20T11:48:44.671Z,81.63
2023-04-20T11:51:11.872Z,82.29
2023-04-20T11:53:38.898Z,80.45
2023-04-20T11:56:06.658Z,81.23
2023-04-20T11:58:33.784Z,81.69
2023-04-20T12:01:00.578Z,80.51
2023-04-20T12:03:27.790Z,82.30
2023-04-20T12:05:55.115Z,82.05
2023-04-20T12:08:22.302Z,81.00
2023-04-20T12:10:49.986Z,81.71
2023-04-20T12:13:16.981Z,81.25
2023-04-20T12:15:43.945Z,80.74
2023-04-20T12:18:11.326Z,80.82
2023-04-20T12:20:38.267Z,81.82
2023-04-20T12:23:05.209Z,81.57
2023-04-20T12:25:32.878Z,81.64
2023-04-20T12:27:59.864Z,81.38
2023-04-20T12:30:26.927Z,82.06
2023-04-20T12:32:54.001Z,83.17
2023-04-20T12:35:21.275Z,83.53
2023-04-20T12:37:48.178Z,83.56
2023-04-20T12:40:15.210Z,83.09
2023-04-20T12:42:42.095Z,82.48
2023-04-20T12:45:09.159Z,84.33
2023-04-20T12:47:36.091Z,84.10
2023-04-20T12:50:03.581Z,84.21
2023-04-20T12:52:30.657Z,84.91
2023-04-20T12:54:57.377Z,84.78
2023-04-20T12:57:24.451Z,84.06
2023-04-20T12:59:51.575Z,84.11
2023-04-20T13:02:18.732Z,84.76
2023-04-20T13:04:46.431Z,86.58
2023-04-20T13:07:13.377Z,86.46
2023-04-20T13:09:40.157Z,85.21
2023-04-20T13:12:07.570Z,85.78
2023-04-20T13:14:34.599Z,85.72
2023-04-20T13:17:02.484Z,85.99
2023-04-20T13:19:30.439Z,86.00
2023-04-20T13:21:57.687Z,86.30
2023-04-20T13:24:24.982Z,86.58
2023-04-20T13:26:56.971Z,85.45
2023-04-20T13:29:25.446Z,85.37
2023-04-20T13:31:52.595Z,86.43
2023-04-20T13:34:19.684Z,86.35
2023-04-20T13:36:46.654Z,85.85
2023-04-20T13:39:14.393Z,86.37
2023-04-20T13:41:41.156Z,87.13
2023-04-20T13:44:09.929Z,87.25
2023-04-20T13:46:37.010Z,86.73
2023-04-20T13:49:03.865Z,86.38
2023-04-20T13:51:31.372Z,86.42
2023-04-20T13:53:58.226Z,87.00
2023-04-20T13:56:25.173Z,87.47
2023-04-20T13:58:52.020Z,86.55
2023-04-20T14:01:18.857Z,86.19
2023-04-20T14:03:45.881Z,85.41
2023-04-20T14:06:13.252Z,84.73
2023-04-20T14:08:40.186Z,82.74
2023-04-20T14:11:07.129Z,82.58
2023-04-20T14:13:34.006Z,83.10
2023-04-20T14:16:00.824Z,82.26
2023-04-20T14:18:27.660Z,83.13
2023-04-20T14:20:55.419Z,83.06
2023-04-20T14:23:22.221Z,82.37
2023-04-20T14:25:48.925Z,82.61
2023-04-20T14:28:16.986Z,82.51
2023-04-20T14:30:45.629Z,82.63
2023-04-20T14:33:13.468Z,83.70
2023-04-20T14:35:40.653Z,84.32
2023-04-20T14:38:07.380Z,84.70
2023-04-20T14:40:34.216Z,84.89
2023-04-20T14:43:01.037Z,85.44
2023-04-20T14:45:28.175Z,85.92
2023-04-20T14:47:56.241Z,85.80
2023-04-20T14:50:25.456Z,85.13
2023-04-20T14:52:53.268Z,85.44
2023-04-20T14:55:24.081Z,86.17
2023-04-20T14:57:54.922Z,86.45
2023-04-20T15:00:24.047Z,86.49
2023-04-20T15:02:52.125Z,86.56
2023-04-20T15:05:19.465Z,86.46
2023-04-20T15:07:46.344Z,87.23
2023-04-20T15:10:13.117Z,88.36
2023-04-20T15:12:39.961Z,87.72
2023-04-20T15:15:07.475Z,88.60
2023-04-20T15:17:34.176Z,88.06
2023-04-20T15:20:01.012Z,89.03
2023-04-20T15:22:27.896Z,88.09
2023-04-20T15:24:55.186Z,88.95
2023-04-20T15:27:22.190Z,88.59
2023-04-20T15:29:48.914Z,88.77
2023-04-20T15:32:15.786Z,88.12
2023-04-20T15:34:42.964Z,87.59
2023-04-20T15:37:09.678Z,86.33
2023-04-20T15:39:36.694Z,85.69
2023-04-20T15:42:03.501Z,86.72
2023-04-20T15:44:30.180Z,85.53
2023-04-20T15:46:58.378Z,85.05
2023-04-20T15:49:25.403Z,85.05
2023-04-20T15:51:52.087Z,85.25
2023-04-20T15:54:23.919Z,85.46
2023-04-20T15:56:51.369Z,85.50
2023-04-20T15:59:20.207Z,86.14
2023-04-20T16:01:47.494Z,85.94
2023-04-20T16:04:14.678Z,86.08
2023-04-20T16:06:41.704Z,86.27
2023-04-20T16:09:08.528Z,86.88
2023-04-20T16:11:35.724Z,87.64
2023-04-20T16:14:02.535Z,88.00
2023-04-20T16:16:29.661Z,88.33
2023-04-20T16:18:56.582Z,88.62
2023-04-20T16:21:23.808Z,89.70
2023-04-20T16:23:54.922Z,89.85
2023-04-20T16:26:22.018Z,90.13
2023-04-20T16:28:49.047Z,91.12
2023-04-20T16:31:16.064Z,90.88
2023-04-20T16:33:43.528Z,91.44
2023-04-20T16:36:10.693Z,93.67
2023-04-20T16:38:37.539Z,93.26
2023-04-20T16:41:04.772Z,93.84
2023-04-20T16:43:31.774Z,93.76
2023-04-20T16:45:59.051Z,93.38
2023-04-20T16:48:25.935Z,95.10
2023-04-20T16:50:52.999Z,95.63
2023-04-20T16:53:19.840Z,96.54
2023-04-20T16:55:46.560Z,96.98
2023-04-20T16:58:14.120Z,96.63
2023-04-20T17:00:41.493Z,96.83
2023-04-20T17:03:10.965Z,97.36
2023-04-20T17:05:41.619Z,97.44
2023-04-20T17:08:08.931Z,98.45
2023-04-20T17:10:37.592Z,98.67
2023-04-20T17:13:04.806Z,99.51
2023-04-20T17:15:31.895Z,99.10
2023-04-20T17:17:59.502Z,99.43
2023-04-20T17:20:26.441Z,100.00
2023-04-20T17:22:53.224Z,100.00
2023-04-20T17:25:20.361Z,100.00
2023-04-20T17:27:47.438Z,100.00
2023-04-20T17:30:14.411Z,100.00
2023-04-20T17:32:41.406Z,100.00
2023-04-20T17:35:08.643Z,100.00
2023-04-20T17:37:37.079Z,100.00
2023-04-20T17:40:05.481Z,100.00
2023-04-20T17:42:32.621Z,100.00
2023-04-20T17:44:59.290Z,100.00
2023-04-20T17:47:26.183Z,100.00
2023-04-20T17:49:53.088Z,100.00
2023-04-20T17:52:22.534Z,100.00
2023-04-20T17:54:49.360Z,100.00
2023-04-20T17:57:16.244Z,100.00
2023-04-20T17:59:42.993Z,100.00
2023-04-20T18:02:10.586Z,100.00
2023-04-20T18:04:37.862Z,100.00
2023-04-20T18:07:05.580Z,100.00
2023-04-20T18:09:32.672Z,100.00
2023-04-20T18:11:59.396Z,100.00
2023-04-20T18:14:26.148Z,100.00
2023-04-20T18:16:55.200Z,100.00
2023-04-20T18:19:22.128Z,100.00
2023-04-20T18:21:49.015Z,100.00
2023-04-20T18:24:16.116Z,100.00
2023-04-20T18:26:43.029Z,100.00
2023-04-20T18:29:09.863Z,100.00
2023-04-20T18:31:36.807Z,100.00
2023-04-20T18:34:04.074Z,100.00
2023-04-20T18:36:31.553Z,100.00
2023-04-20T18:38:58.339Z,100.00
2023-04-20T18:41:25.974Z,100.00
2023-04-20T18:43:53.689Z,100.00
2023-04-20T18:46:20.595Z,100.00
2023-04-20T18:48:47.505Z,100.00
2023-04-20T18:51:14.415Z,100.00
2023-04-20T18:53:41.119Z,100.00
2023-04-20T18:56:09.763Z,100.00
2023-04-20T18:58:37.151Z,100.00
2023-04-20T19:01:04.689Z,100.00
2023-04-20T19:03:32.474Z,100.00
2023-04-20T19:05:59.668Z,100.00
2023-04-20T19:08:26.517Z,100.00
2023-04-20T19:10:56.736Z,100.00
2023-04-20T19:13:24.219Z,100.00
2023-04-20T19:15:51.197Z,100.00
2023-04-20T19:18:18.005Z,100.00
2023-04-20T19:20:44.891Z,100.00
2023-04-20T19:23:12.026Z,100.00
2023-04-20T19:25:38.885Z,100.00
2023-04-20T19:28:08.463Z,100.00
2023-04-20T19:30:36.202Z,100.00
2023-04-20T19:33:05.440Z,100.00
2023-04-20T19:35:32.555Z,100.00
2023-04-20T19:37:59.821Z,100.00
2023-04-20T19:40:27.528Z,100.00
2023-04-20T19:42:54.216Z,100.00
2023-04-20T19:45:21.183Z,100.00
2023-04-20T19:47:48.018Z,100.00
2023-04-20T19:50:15.087Z,100.00
2023-04-20T19:52:42.170Z,100.00
2023-04-20T19:55:09.636Z,100.00
2023-04-20T19:57:36.430Z,100.00
2023-04-20T20:00:05.001Z,100.00
2023-04-20T20:02:32.126Z,100.00
2023-04-20T20:04:58.929Z,100.00
2023-04-20T20:07:26.747Z,100.00
2023-04-20T20:09:53.625Z,100.00
2023-04-20T20:12:20.404Z,100.00
2023-04-20T20:14:47.490Z,100.00
2023-04-20T20:17:14.257Z,100.00
2023-04-20T20:19:43.550Z,100.00
2023-04-20T20:22:10.562Z,100.00
2023-04-20T20:24:37.858Z,100.00
2023-04-20T20:27:05.103Z,100.00
2023-04-20T20:29:31.897Z,100.00
2023-04-20T20:31:58.590Z,100.00
2023-04-20T20:34:25.781Z,100.00
2023-04-20T20:36:53.524Z,100.00
2023-04-20T20:39:20.516Z,100.00
2023-04-20T20:41:47.923Z,100.00
2023-04-20T20:44:15.301Z,100.00
2023-04-20T20:46:42.507Z,100.00
2023-04-20T20:49:09.540Z,100.00
2023-04-20T20:51:36.591Z,100.00
2023-04-20T20:54:03.741Z,100.00
2023-04-20T20:56:30.464Z,100.00
2023-04-20T20:58:57.320Z,100.00
2023-04-20T21:01:24.113Z,100.00
2023-04-20T21:03:51.014Z,100.00
2023-04-20T21:06:18.378Z,100.00
2023-04-20T21:08:45.085Z,100.00
2023-04-20T21:11:11.804Z,100.00
2023-04-20T21:13:38.603Z,100.00
2023-04-20T21:16:05.740Z,100.00
2023-04-20T21:18:33.186Z,100.00
2023-04-20T21:20:59.883Z,100.00
2023-04-20T21:23:26.736Z,100.00
2023-04-20T21:25:53.383Z,100.00
2023-04-20T21:28:20.134Z,100.00
2023-04-20T21:30:46.920Z,100.00
2023-04-20T21:33:13.915Z,100.00
2023-04-20T21:35:40.703Z,100.00
2023-04-20T21:38:07.545Z,100.00
2023-04-20T21:40:34.498Z,100.00
2023-04-20T21:43:01.330Z,100.00
2023-04-20T21:45:28.221Z,100.00
2023-04-20T21:47:55.763Z,100.00
2023-04-20T21:50:27.266Z,100.00
2023-04-20T21:52:54.834Z,100.00
2023-04-20T21:55:21.741Z,100.00
2023-04-20T21:57:48.583Z,100.00
2023-04-20T22:00:16.085Z,100.00
2023-04-20T22:02:43.083Z,100.00
2023-04-20T22:05:11.082Z,100.00
2023-04-20T22:07:38.977Z,100.00
2023-04-20T22:10:07.342Z,100.00
2023-04-20T22:12:39.616Z,100.00
2023-04-20T22:15:11.213Z,100.00
2023-04-20T22:17:38.263Z,100.00
2023-04-20T22:20:07.931Z,100.00
2023-04-20T22:22:35.556Z,100.00
2023-04-20T22:25:03.367Z,100.00
2023-04-20T22:27:30.374Z,100.00
2023-04-20T22:29:57.285Z,100.00
2023-04-20T22:32:24.210Z,100.00
2023-04-20T22:34:51.210Z,100.00
2023-04-20T22:37:17.979Z,100.00
2023-04-20T22:39:45.029Z,100.00
2023-04-20T22:42:12.045Z,100.00
2023-04-20T22:44:38.787Z,100.00
2023-04-20T22:47:06.023Z,100.00
2023-04-20T22:49:32.991Z,100.00
2023-04-20T22:51:59.759Z,100.00
2023-04-20T22:54:26.610Z,100.00
2023-04-20T22:56:53.742Z,100.00
2023-04-20T22:59:20.820Z,100.00
2023-04-20T23:01:47.758Z,100.00
2023-04-20T23:04:14.634Z,100.00
2023-04-20T23:06:44.027Z,100.00
2023-04-20T23:09:13.491Z,100.00
2023-04-20T23:11:40.487Z,100.00
2023-04-20T23:14:08.176Z,100.00
2023-04-20T23:16:35.604Z,100.00
2023-04-20T23:19:02.356Z,100.00
2023-04-20T23:21:29.180Z,100.00
2023-04-20T23:23:59.562Z,100.00
2023-04-20T23:26:26.299Z,100.00
2023-04-20T23:28:53.795Z,100.00
2023-04-20T23:31:21.452Z,100.00
2023-04-20T23:33:48.344Z,100.00
2023-04-20T23:36:15.273Z,100.00
2023-04-20T23:38:42.469Z,100.00
2023-04-20T23:41:10.836Z,100.00
2023-04-20T23:43:39.088Z,100.00
2023-04-20T23:46:06.752Z,100.00
2023-04-20T23:48:34.059Z,100.00
2023-04-20T23:51:02.011Z,100.00
2023-04-20T23:53:28.965Z,100.00
2023-04-20T23:55:55.888Z,100.00
2023-04-20T23:58:26.692Z,100.00
